createdAt,value
2022-12-25T01:21:26.357Z,3.39
2022-12-25T01:22:27.566Z,3.39
2022-12-25T01:23:25.872Z,3.36
2022-12-25T01:24:26.164Z,3.39
2022-12-25T01:25:26.428Z,3.39
2022-12-25T01:26:26.676Z,3.33
2022-12-25T01:27:26.889Z,3.39
2022-12-25T01:28:27.142Z,3.44
2022-12-25T01:29:27.424Z,3.47
2022-12-25T01:30:27.692Z,3.50
2022-12-25T01:31:29.446Z,3.49
2022-12-25T01:32:28.301Z,3.47
2022-12-25T01:33:30.484Z,3.39
2022-12-25T01:34:28.785Z,3.18
2022-12-25T01:35:31.037Z,3.05
2022-12-25T01:36:31.336Z,2.92
2022-12-25T01:37:31.562Z,2.89
2022-12-25T01:38:29.813Z,2.89
2022-12-25T01:39:30.041Z,2.91
2022-12-25T01:40:32.209Z,2.89
2022-12-25T01:41:30.510Z,2.84
2022-12-25T01:42:30.763Z,2.79
2022-12-25T01:43:31.011Z,2.76
2022-12-25T01:44:33.224Z,2.73
2022-12-25T01:45:33.572Z,2.70
2022-12-25T01:46:33.388Z,2.67
2022-12-25T01:47:34.350Z,2.61
2022-12-25T01:48:32.613Z,2.56
2022-12-25T01:49:32.872Z,2.53
2022-12-25T01:50:35.062Z,2.48
2022-12-25T01:51:33.334Z,2.48
2022-12-25T01:52:33.578Z,2.45
2022-12-25T01:53:33.797Z,2.38
2022-12-25T01:54:34.029Z,2.35
2022-12-25T01:55:35.243Z,2.34
2022-12-25T01:56:35.451Z,2.35
2022-12-25T01:57:34.726Z,2.35
2022-12-25T01:58:34.941Z,2.28
2022-12-25T01:59:36.146Z,2.20
2022-12-25T02:00:36.434Z,2.16
2022-12-25T02:01:35.862Z,2.10
2022-12-25T02:02:36.324Z,2.04
2022-12-25T02:03:36.642Z,1.98
2022-12-25T02:04:36.868Z,1.97
2022-12-25T02:05:39.115Z,1.99
2022-12-25T02:06:37.432Z,2.01
2022-12-25T02:07:38.637Z,2.04
2022-12-25T02:08:37.870Z,2.08
2022-12-25T02:09:38.117Z,2.10
2022-12-25T02:10:39.361Z,2.15
2022-12-25T02:11:38.643Z,2.17
2022-12-25T02:12:40.883Z,2.15
2022-12-25T02:13:41.143Z,2.13
2022-12-25T02:14:39.362Z,2.16
2022-12-25T02:15:40.551Z,2.17
2022-12-25T02:16:56.897Z,2.17
2022-12-25T02:17:41.022Z,2.13
2022-12-25T02:18:41.276Z,2.13
2022-12-25T02:19:41.476Z,2.16
2022-12-25T02:20:42.654Z,2.19
2022-12-25T02:21:40.975Z,2.20
2022-12-25T02:22:41.259Z,2.28
2022-12-25T02:23:41.564Z,2.35
2022-12-25T02:24:42.667Z,2.41
2022-12-25T02:25:41.943Z,2.48
2022-12-25T02:26:42.212Z,2.56
2022-12-25T02:27:43.452Z,2.69
2022-12-25T02:28:46.133Z,2.69
2022-12-25T02:29:43.042Z,2.64
2022-12-25T02:30:43.387Z,2.59
2022-12-25T02:31:45.777Z,2.58
2022-12-25T02:32:44.053Z,2.55
2022-12-25T02:33:44.314Z,2.56
2022-12-25T02:34:45.393Z,2.61
2022-12-25T02:35:45.614Z,2.66
2022-12-25T02:36:44.870Z,2.66
2022-12-25T02:37:47.243Z,2.70
2022-12-25T02:38:46.426Z,2.73
2022-12-25T02:39:45.726Z,2.95
2022-12-25T02:40:47.966Z,3.23
2022-12-25T02:41:46.222Z,3.44
2022-12-25T02:42:46.463Z,3.54
2022-12-25T02:43:46.723Z,3.64
2022-12-25T02:44:46.967Z,3.68
2022-12-25T02:45:48.274Z,3.64
2022-12-25T02:46:47.565Z,3.53
2022-12-25T02:47:47.807Z,3.34
2022-12-25T02:48:49.527Z,3.25
2022-12-25T02:49:48.312Z,3.23
2022-12-25T02:50:48.596Z,3.21
2022-12-25T02:51:49.826Z,3.18
2022-12-25T02:52:51.059Z,3.20
2022-12-25T02:53:50.306Z,3.24
2022-12-25T02:54:49.540Z,3.40
2022-12-25T02:55:51.732Z,3.54
2022-12-25T02:56:49.977Z,3.75
2022-12-25T02:57:50.216Z,3.89
2022-12-25T02:58:51.399Z,4.03
2022-12-25T02:59:50.659Z,4.21
2022-12-25T03:00:50.946Z,4.32
2022-12-25T03:01:52.282Z,4.40
2022-12-25T03:02:52.580Z,4.44
2022-12-25T03:03:51.889Z,4.47
2022-12-25T03:04:52.174Z,4.52
2022-12-25T03:05:53.392Z,4.55
2022-12-25T03:06:54.122Z,4.58
2022-12-25T03:07:53.847Z,4.61
2022-12-25T03:08:53.113Z,4.69
2022-12-25T03:09:53.348Z,4.75
2022-12-25T03:10:53.567Z,4.83
2022-12-25T03:11:53.796Z,4.89
2022-12-25T03:12:54.007Z,4.96
2022-12-25T03:13:55.289Z,5.05
2022-12-25T03:14:56.478Z,5.14
2022-12-25T03:15:54.695Z,5.20
2022-12-25T03:16:55.128Z,5.25
2022-12-25T03:17:56.035Z,5.30
2022-12-25T03:18:56.272Z,5.35
2022-12-25T03:19:57.527Z,5.45
2022-12-25T03:20:55.759Z,5.52
2022-12-25T03:21:55.976Z,5.60
2022-12-25T03:22:56.277Z,5.64
2022-12-25T03:23:57.485Z,5.67
2022-12-25T03:24:57.701Z,5.68
2022-12-25T03:25:57.881Z,5.70
2022-12-25T03:26:57.112Z,5.73
2022-12-25T03:27:58.355Z,5.73
2022-12-25T03:28:57.598Z,5.73
2022-12-25T03:29:59.858Z,5.74
2022-12-25T03:30:58.107Z,5.77
2022-12-25T03:31:59.339Z,5.81
2022-12-25T03:32:58.582Z,5.83
2022-12-25T03:33:58.859Z,5.88
2022-12-25T03:34:59.164Z,5.92
2022-12-25T03:35:59.399Z,5.96
2022-12-25T03:37:01.608Z,5.98
2022-12-25T03:38:01.317Z,6.01
2022-12-25T03:39:00.010Z,6.03
2022-12-25T03:40:01.989Z,6.01
2022-12-25T03:41:00.232Z,6.03
2022-12-25T03:42:02.427Z,6.03
2022-12-25T03:43:01.616Z,6.06
2022-12-25T03:44:00.866Z,6.09
2022-12-25T03:45:01.102Z,6.13
2022-12-25T03:46:01.369Z,6.13
2022-12-25T03:47:03.119Z,6.16
2022-12-25T03:48:03.870Z,6.18
2022-12-25T03:49:02.106Z,6.22
2022-12-25T03:50:03.134Z,6.25
2022-12-25T03:51:03.345Z,6.30
2022-12-25T03:52:02.571Z,6.36
2022-12-25T03:53:03.686Z,6.33
2022-12-25T03:54:03.681Z,6.25
2022-12-25T03:55:03.873Z,6.18
2022-12-25T03:56:03.096Z,6.13
2022-12-25T03:57:05.294Z,6.14
2022-12-25T03:58:04.289Z,6.21
2022-12-25T03:59:04.502Z,6.26
2022-12-25T04:00:05.250Z,6.32
2022-12-25T04:01:04.828Z,6.33
2022-12-25T04:02:05.027Z,6.35
2022-12-25T04:03:06.274Z,6.41
2022-12-25T04:04:05.750Z,6.44
2022-12-25T04:05:06.936Z,6.41
2022-12-25T04:06:07.168Z,6.38
2022-12-25T04:07:06.879Z,6.33
2022-12-25T04:08:06.436Z,6.33
2022-12-25T04:09:05.735Z,6.30
2022-12-25T04:10:06.933Z,6.33
2022-12-25T04:11:07.283Z,6.38
2022-12-25T04:12:07.496Z,6.43
2022-12-25T04:13:07.697Z,6.47
2022-12-25T04:14:07.914Z,6.62
2022-12-25T04:15:08.133Z,6.71
2022-12-25T04:16:08.894Z,6.77
2022-12-25T04:17:08.626Z,6.80
2022-12-25T04:18:08.773Z,6.81
2022-12-25T04:19:08.996Z,6.80
2022-12-25T04:20:09.211Z,6.80
2022-12-25T04:21:09.604Z,6.73
2022-12-25T04:22:09.827Z,6.71
2022-12-25T04:23:10.059Z,6.68
2022-12-25T04:24:10.233Z,6.63
2022-12-25T04:25:10.404Z,6.61
2022-12-25T04:26:10.587Z,6.59
2022-12-25T04:27:10.840Z,6.58
2022-12-25T04:28:11.145Z,6.62
2022-12-25T04:29:11.321Z,6.65
2022-12-25T04:30:11.512Z,6.66
2022-12-25T04:31:11.713Z,6.66
2022-12-25T04:32:12.436Z,6.63
2022-12-25T04:33:12.643Z,6.63
2022-12-25T04:34:12.319Z,6.62
2022-12-25T04:35:12.561Z,6.62
2022-12-25T04:36:12.769Z,6.61
2022-12-25T04:37:12.986Z,6.62
2022-12-25T04:38:13.732Z,6.61
2022-12-25T04:39:12.507Z,6.59
2022-12-25T04:40:14.208Z,6.61
2022-12-25T04:41:12.930Z,6.58
2022-12-25T04:42:13.117Z,6.59
2022-12-25T04:43:13.375Z,6.59
2022-12-25T04:44:15.565Z,6.61
2022-12-25T04:45:15.745Z,6.59
2022-12-25T04:46:15.008Z,6.62
2022-12-25T04:47:16.226Z,6.59
2022-12-25T04:48:16.442Z,6.58
2022-12-25T04:49:15.704Z,6.58
2022-12-25T04:50:15.794Z,6.54
2022-12-25T04:51:15.031Z,6.54
2022-12-25T04:52:15.247Z,6.48
2022-12-25T04:53:15.501Z,6.48
2022-12-25T04:54:17.669Z,6.47
2022-12-25T04:55:17.859Z,6.43
2022-12-25T04:56:16.110Z,6.41
2022-12-25T04:57:17.306Z,6.36
2022-12-25T04:58:18.534Z,6.35
2022-12-25T04:59:16.829Z,6.32
2022-12-25T05:00:19.055Z,6.33
2022-12-25T05:01:17.482Z,6.32
2022-12-25T05:02:17.410Z,6.28
2022-12-25T05:03:18.745Z,6.22
2022-12-25T05:04:19.953Z,6.19
2022-12-25T05:05:19.272Z,6.18
2022-12-25T05:06:19.660Z,6.16
2022-12-25T05:07:19.858Z,6.13
2022-12-25T05:08:19.121Z,6.10
2022-12-25T05:09:21.334Z,6.09
2022-12-25T05:10:20.611Z,6.09
2022-12-25T05:11:20.957Z,6.07
2022-12-25T05:12:20.273Z,6.07
2022-12-25T05:13:20.572Z,6.09
2022-12-25T05:14:20.858Z,6.11
2022-12-25T05:15:20.818Z,6.13
2022-12-25T05:16:21.201Z,6.14
2022-12-25T05:17:21.542Z,6.16
2022-12-25T05:18:23.800Z,6.18
2022-12-25T05:19:22.043Z,6.16
2022-12-25T05:20:22.324Z,6.14
2022-12-25T05:21:22.702Z,6.16
2022-12-25T05:22:22.954Z,6.26
2022-12-25T05:23:23.172Z,6.33
2022-12-25T05:24:23.422Z,6.44
2022-12-25T05:25:23.706Z,6.51
2022-12-25T05:26:24.926Z,6.59
2022-12-25T05:27:26.042Z,6.63
2022-12-25T05:28:26.239Z,6.66
2022-12-25T05:29:24.498Z,6.71
2022-12-25T05:30:24.821Z,6.79
2022-12-25T05:31:25.116Z,6.83
2022-12-25T05:32:25.413Z,6.87
2022-12-25T05:33:25.632Z,6.91
2022-12-25T05:34:25.884Z,6.89
2022-12-25T05:35:26.164Z,6.83
2022-12-25T05:36:26.429Z,6.76
2022-12-25T05:37:26.854Z,6.63
2022-12-25T05:38:29.100Z,6.59
2022-12-25T05:39:27.441Z,6.51
2022-12-25T05:40:27.703Z,6.46
2022-12-25T05:41:33.945Z,6.44
2022-12-25T05:42:28.276Z,6.38
2022-12-25T05:43:28.506Z,6.35
2022-12-25T05:44:28.721Z,6.35
2022-12-25T05:45:30.499Z,6.33
2022-12-25T05:46:29.240Z,6.30
2022-12-25T05:47:29.613Z,6.29
2022-12-25T05:48:30.856Z,6.25
2022-12-25T05:49:30.105Z,6.21
2022-12-25T05:50:30.331Z,6.22
2022-12-25T05:51:30.597Z,6.21
2022-12-25T05:52:30.796Z,6.19
2022-12-25T05:53:31.025Z,6.16
2022-12-25T05:54:33.216Z,6.13
2022-12-25T05:55:31.440Z,6.16
2022-12-25T05:56:33.679Z,6.16
2022-12-25T05:57:33.003Z,6.18
2022-12-25T05:58:33.243Z,6.18
2022-12-25T05:59:32.487Z,6.18
2022-12-25T06:00:32.805Z,6.19
2022-12-25T06:01:33.253Z,6.19
2022-12-25T06:02:33.156Z,6.18
2022-12-25T06:03:35.536Z,6.16
2022-12-25T06:04:33.281Z,6.16
2022-12-25T06:05:35.541Z,6.16
2022-12-25T06:06:33.823Z,6.13
2022-12-25T06:07:34.045Z,6.10
2022-12-25T06:08:36.235Z,6.10
2022-12-25T06:09:34.433Z,6.10
2022-12-25T06:10:34.700Z,6.10
2022-12-25T06:11:35.915Z,6.09
2022-12-25T06:12:35.163Z,6.10
2022-12-25T06:13:37.394Z,6.10
2022-12-25T06:14:36.580Z,6.10
2022-12-25T06:15:36.768Z,6.07
2022-12-25T06:16:38.640Z,6.06
2022-12-25T06:17:36.529Z,6.01
2022-12-25T06:18:38.696Z,5.98
2022-12-25T06:19:36.993Z,5.96
2022-12-25T06:20:39.211Z,5.98
2022-12-25T06:21:37.504Z,6.00
2022-12-25T06:22:37.775Z,5.96
2022-12-25T06:23:38.200Z,5.95
2022-12-25T06:24:38.522Z,5.93
2022-12-25T06:25:38.810Z,5.89
2022-12-25T06:26:39.067Z,5.88
2022-12-25T06:27:41.305Z,5.88
2022-12-25T06:28:41.557Z,5.88
2022-12-25T06:29:39.775Z,5.95
2022-12-25T06:30:40.037Z,6.00
2022-12-25T06:31:40.342Z,6.07
2022-12-25T06:32:40.592Z,6.13
2022-12-25T06:33:42.846Z,6.25
2022-12-25T06:34:41.146Z,6.46
2022-12-25T06:35:41.368Z,6.65
2022-12-25T06:36:41.603Z,6.90
2022-12-25T06:37:43.783Z,7.20
2022-12-25T06:38:43.982Z,7.53
2022-12-25T06:39:42.212Z,7.78
2022-12-25T06:40:42.420Z,7.89
2022-12-25T06:41:42.619Z,7.99
2022-12-25T06:42:42.853Z,8.00
2022-12-25T06:43:43.107Z,7.99
2022-12-25T06:44:43.380Z,7.96
2022-12-25T06:45:45.676Z,7.96
2022-12-25T06:46:43.931Z,8.02
2022-12-25T06:47:44.197Z,7.99
2022-12-25T06:48:45.411Z,7.94
2022-12-25T06:49:44.684Z,7.77
2022-12-25T06:50:44.919Z,7.53
2022-12-25T06:51:45.174Z,7.32
2022-12-25T06:52:45.501Z,7.13
2022-12-25T06:53:47.724Z,7.01
2022-12-25T06:54:46.041Z,6.87
2022-12-25T06:55:46.254Z,6.76
2022-12-25T06:56:46.569Z,6.59
2022-12-25T06:57:46.835Z,6.44
2022-12-25T06:58:49.043Z,6.32
2022-12-25T06:59:51.374Z,6.25
2022-12-25T07:00:47.771Z,6.19
2022-12-25T07:01:48.197Z,6.16
2022-12-25T07:02:49.137Z,6.13
2022-12-25T07:03:48.383Z,6.44
2022-12-25T07:04:48.611Z,6.61
2022-12-25T07:05:48.867Z,6.73
2022-12-25T07:06:49.142Z,6.81
2022-12-25T07:07:50.161Z,7.01
2022-12-25T07:08:51.349Z,7.29
2022-12-25T07:09:50.599Z,7.45
2022-12-25T07:10:49.858Z,7.63
2022-12-25T07:11:50.079Z,7.81
2022-12-25T07:12:50.316Z,7.93
2022-12-25T07:13:51.514Z,8.08
2022-12-25T07:14:50.737Z,8.21
2022-12-25T07:15:50.981Z,8.30
2022-12-25T07:16:52.389Z,8.33
2022-12-25T07:17:53.185Z,8.36
2022-12-25T07:18:51.933Z,8.42
2022-12-25T07:19:52.155Z,8.48
2022-12-25T07:20:53.330Z,8.47
2022-12-25T07:21:54.581Z,8.45
2022-12-25T07:22:54.794Z,8.48
2022-12-25T07:23:53.001Z,8.54
2022-12-25T07:24:53.217Z,8.57
2022-12-25T07:25:53.464Z,8.63
2022-12-25T07:26:54.672Z,8.65
2022-12-25T07:27:56.349Z,8.65
2022-12-25T07:28:54.079Z,8.63
2022-12-25T07:29:54.304Z,8.63
2022-12-25T07:30:54.501Z,8.66
2022-12-25T07:31:54.796Z,8.66
2022-12-25T07:32:55.972Z,8.69
2022-12-25T07:33:55.241Z,8.71
2022-12-25T07:34:55.450Z,8.73
2022-12-25T07:35:56.460Z,8.72
2022-12-25T07:36:56.662Z,8.71
2022-12-25T07:37:57.963Z,8.69
2022-12-25T07:38:58.648Z,8.69
2022-12-25T07:39:56.375Z,8.69
2022-12-25T07:40:56.609Z,8.72
2022-12-25T07:41:56.836Z,8.72
2022-12-25T07:42:59.045Z,8.73
2022-12-25T07:43:59.189Z,8.76
2022-12-25T07:44:57.402Z,8.79
2022-12-25T07:45:57.745Z,8.81
2022-12-25T07:47:00.107Z,8.79
2022-12-25T07:48:04.959Z,8.83
2022-12-25T07:48:58.453Z,8.84
2022-12-25T07:49:58.673Z,8.87
2022-12-25T07:50:58.912Z,8.86
2022-12-25T07:52:01.261Z,8.86
2022-12-25T07:52:59.493Z,8.84
2022-12-25T07:53:59.766Z,8.83
2022-12-25T07:55:00.118Z,8.87
2022-12-25T07:56:02.456Z,8.94
2022-12-25T07:57:02.175Z,8.94
2022-12-25T07:58:00.927Z,8.91
2022-12-25T07:59:01.179Z,8.94
2022-12-25T08:00:02.196Z,8.97
2022-12-25T08:01:01.556Z,8.97
2022-12-25T08:02:02.010Z,9.01
2022-12-25T08:03:02.079Z,9.02
2022-12-25T08:04:01.932Z,9.02
2022-12-25T08:05:03.197Z,9.05
2022-12-25T08:06:02.441Z,9.09
2022-12-25T08:07:04.633Z,9.10
2022-12-25T08:08:05.729Z,9.20
2022-12-25T08:09:05.125Z,9.32
2022-12-25T08:10:03.339Z,9.48
2022-12-25T08:11:03.553Z,9.57
2022-12-25T08:12:03.857Z,9.60
2022-12-25T08:13:10.844Z,9.64
2022-12-25T08:14:04.313Z,9.70
2022-12-25T08:15:04.525Z,9.78
2022-12-25T08:16:04.788Z,9.71
2022-12-25T08:17:05.060Z,9.73
2022-12-25T08:18:05.314Z,9.76
2022-12-25T08:19:05.558Z,9.71
2022-12-25T08:20:07.742Z,9.71
2022-12-25T08:21:08.005Z,9.70
2022-12-25T08:22:08.217Z,9.68
2022-12-25T08:23:06.452Z,9.71
2022-12-25T08:24:07.656Z,9.71
2022-12-25T08:25:06.925Z,9.73
2022-12-25T08:26:07.178Z,9.76
2022-12-25T08:27:09.467Z,9.75
2022-12-25T08:28:08.289Z,9.71
2022-12-25T08:29:08.988Z,9.71
2022-12-25T08:30:10.188Z,9.70
2022-12-25T08:31:08.434Z,9.76
2022-12-25T08:32:08.818Z,9.82
2022-12-25T08:33:10.027Z,9.85
2022-12-25T08:34:10.199Z,9.86
2022-12-25T08:35:09.435Z,9.83
2022-12-25T08:36:11.690Z,9.81
2022-12-25T08:37:11.398Z,9.81
2022-12-25T08:38:12.209Z,9.79
2022-12-25T08:39:10.432Z,9.79
2022-12-25T08:40:10.662Z,9.76
2022-12-25T08:41:11.876Z,9.73
2022-12-25T08:42:11.170Z,9.70
2022-12-25T08:43:11.392Z,9.70
2022-12-25T08:44:12.624Z,9.66
2022-12-25T08:45:11.820Z,9.63
2022-12-25T08:46:14.036Z,9.63
2022-12-25T08:47:12.378Z,9.61
2022-12-25T08:48:12.680Z,9.60
2022-12-25T08:49:14.841Z,9.57
2022-12-25T08:50:15.013Z,9.57
2022-12-25T08:51:14.442Z,9.56
2022-12-25T08:52:15.650Z,9.56
2022-12-25T08:53:13.889Z,9.53
2022-12-25T08:54:14.127Z,9.53
2022-12-25T08:55:14.441Z,9.53
2022-12-25T08:56:16.716Z,9.56
2022-12-25T08:57:15.015Z,9.53
2022-12-25T08:58:17.217Z,9.53
2022-12-25T08:59:16.383Z,9.56
2022-12-25T09:00:15.600Z,9.53
2022-12-25T09:01:16.958Z,9.53
2022-12-25T09:02:17.395Z,9.56
2022-12-25T09:03:16.319Z,9.56
2022-12-25T09:04:16.604Z,9.56
2022-12-25T09:05:18.821Z,9.58
2022-12-25T09:06:19.047Z,9.60
2022-12-25T09:07:17.314Z,9.60
2022-12-25T09:08:19.580Z,9.61
2022-12-25T09:09:19.780Z,9.61
2022-12-25T09:10:18.043Z,9.66
2022-12-25T09:11:18.280Z,9.64
2022-12-25T09:12:18.572Z,9.70
2022-12-25T09:13:18.863Z,9.75
2022-12-25T09:14:20.052Z,9.78
2022-12-25T09:15:19.263Z,9.82
2022-12-25T09:16:20.561Z,9.83
2022-12-25T09:17:20.029Z,9.85
2022-12-25T09:18:22.212Z,9.85
2022-12-25T09:19:20.404Z,9.89
2022-12-25T09:20:22.580Z,9.88
2022-12-25T09:21:21.613Z,9.88
2022-12-25T09:22:22.826Z,9.88
2022-12-25T09:23:21.065Z,9.88
2022-12-25T09:24:21.326Z,9.88
2022-12-25T09:25:22.483Z,9.88
2022-12-25T09:26:22.750Z,9.88
2022-12-25T09:27:21.994Z,9.89
2022-12-25T09:28:24.196Z,9.88
2022-12-25T09:29:23.418Z,9.89
2022-12-25T09:30:24.629Z,9.89
2022-12-25T09:31:24.885Z,9.91
2022-12-25T09:32:25.140Z,9.91
2022-12-25T09:33:23.347Z,9.91
2022-12-25T09:34:23.737Z,9.91
2022-12-25T09:35:24.002Z,9.93
2022-12-25T09:36:25.264Z,9.94
2022-12-25T09:37:24.511Z,9.91
2022-12-25T09:38:26.681Z,9.91
2022-12-25T09:39:24.927Z,9.89
2022-12-25T09:40:25.181Z,9.88
2022-12-25T09:41:25.376Z,9.85
2022-12-25T09:42:25.578Z,9.85
2022-12-25T09:43:25.760Z,9.85
2022-12-25T09:44:28.031Z,9.83
2022-12-25T09:45:27.196Z,9.85
2022-12-25T09:46:36.446Z,9.81
2022-12-25T09:47:26.903Z,9.81
2022-12-25T09:48:28.129Z,9.81
2022-12-25T09:49:27.410Z,9.81
2022-12-25T09:50:27.635Z,9.82
2022-12-25T09:51:29.670Z,9.79
2022-12-25T09:52:29.841Z,9.81
2022-12-25T09:53:28.071Z,9.81
2022-12-25T09:54:30.311Z,9.83
2022-12-25T09:55:28.526Z,9.85
2022-12-25T09:56:30.695Z,9.88
2022-12-25T09:57:28.931Z,9.88
2022-12-25T09:58:30.180Z,9.88
2022-12-25T09:59:29.480Z,9.88
2022-12-25T10:00:30.670Z,9.89
2022-12-25T10:01:30.029Z,9.91
2022-12-25T10:02:30.527Z,9.91
2022-12-25T10:03:32.403Z,9.89
2022-12-25T10:04:37.438Z,9.91
2022-12-25T10:05:31.766Z,9.89
2022-12-25T10:06:31.924Z,9.89
2022-12-25T10:07:31.991Z,9.89
2022-12-25T10:08:32.692Z,9.88
2022-12-25T10:09:32.400Z,9.88
2022-12-25T10:10:31.651Z,9.89
2022-12-25T10:11:31.894Z,9.91
2022-12-25T10:12:32.212Z,9.94
2022-12-25T10:13:32.456Z,9.96
2022-12-25T10:14:33.679Z,10.00
2022-12-25T10:15:37.828Z,10.00
2022-12-25T10:16:35.128Z,10.03
2022-12-25T10:17:35.331Z,10.06
2022-12-25T10:18:33.583Z,10.07
2022-12-25T10:19:33.863Z,10.09
2022-12-25T10:20:34.071Z,10.10
2022-12-25T10:21:34.312Z,10.12
2022-12-25T10:22:34.592Z,10.12
2022-12-25T10:23:34.856Z,10.12
2022-12-25T10:24:35.083Z,10.10
2022-12-25T10:25:37.259Z,10.10
2022-12-25T10:26:35.468Z,10.12
2022-12-25T10:27:35.752Z,10.14
2022-12-25T10:28:35.976Z,10.14
2022-12-25T10:29:36.197Z,10.14
2022-12-25T10:30:37.464Z,10.17
2022-12-25T10:31:36.729Z,10.18
2022-12-25T10:32:37.938Z,10.19
2022-12-25T10:33:38.126Z,10.22
2022-12-25T10:34:37.479Z,10.25
2022-12-25T10:35:37.717Z,10.26
2022-12-25T10:36:37.946Z,10.28
2022-12-25T10:37:40.196Z,10.26
2022-12-25T10:38:38.442Z,10.25
2022-12-25T10:39:45.815Z,10.22
2022-12-25T10:40:40.174Z,10.24
2022-12-25T10:41:40.939Z,10.21
2022-12-25T10:42:39.225Z,10.22
2022-12-25T10:43:41.461Z,10.18
2022-12-25T10:44:41.667Z,10.17
2022-12-25T10:45:40.892Z,10.15
2022-12-25T10:46:42.052Z,10.15
2022-12-25T10:47:43.659Z,10.17
2022-12-25T10:48:40.443Z,10.15
2022-12-25T10:49:41.792Z,10.15
2022-12-25T10:50:41.030Z,10.14
2022-12-25T10:51:41.290Z,10.12
2022-12-25T10:52:41.528Z,10.12
2022-12-25T10:53:41.773Z,10.12
2022-12-25T10:54:43.464Z,10.10
2022-12-25T10:55:43.235Z,10.09
2022-12-25T10:56:44.398Z,10.09
2022-12-25T10:57:44.717Z,10.07
2022-12-25T10:58:43.057Z,10.07
2022-12-25T10:59:45.903Z,10.07
2022-12-25T11:00:44.851Z,10.07
2022-12-25T11:01:44.262Z,10.09
2022-12-25T11:02:46.671Z,10.06
2022-12-25T11:03:45.538Z,10.07
2022-12-25T11:04:46.741Z,10.06
2022-12-25T11:05:45.006Z,10.04
2022-12-25T11:06:46.191Z,10.03
2022-12-25T11:07:46.360Z,10.01
2022-12-25T11:08:46.548Z,10.03
2022-12-25T11:09:45.777Z,10.04
2022-12-25T11:10:45.990Z,10.06
2022-12-25T11:11:46.218Z,10.03
2022-12-25T11:12:46.477Z,10.01
2022-12-25T11:13:47.548Z,9.99
2022-12-25T11:14:46.912Z,9.97
2022-12-25T11:15:47.255Z,9.94
2022-12-25T11:16:47.703Z,9.96
2022-12-25T11:17:50.043Z,9.97
2022-12-25T11:18:48.282Z,9.94
2022-12-25T11:19:48.603Z,9.94
2022-12-25T11:20:48.983Z,9.91
2022-12-25T11:21:49.208Z,9.89
2022-12-25T11:22:51.626Z,9.86
2022-12-25T11:23:50.088Z,9.83
2022-12-25T11:24:51.881Z,9.82
2022-12-25T11:25:50.265Z,9.79
2022-12-25T11:26:50.581Z,9.76
2022-12-25T11:27:53.717Z,9.73
2022-12-25T11:28:51.015Z,9.70
2022-12-25T11:29:51.439Z,9.68
2022-12-25T11:30:53.018Z,9.67
2022-12-25T11:31:51.880Z,9.66
2022-12-25T11:32:52.258Z,9.67
2022-12-25T11:33:53.591Z,9.66
2022-12-25T11:34:52.910Z,9.64
2022-12-25T11:35:53.173Z,9.63
2022-12-25T11:36:55.803Z,9.63
2022-12-25T11:37:55.672Z,9.63
2022-12-25T11:38:53.995Z,9.60
2022-12-25T11:39:54.428Z,9.60
2022-12-25T11:40:54.724Z,9.58
2022-12-25T11:41:55.492Z,9.61
2022-12-25T11:42:55.329Z,9.60
2022-12-25T11:43:58.302Z,9.61
2022-12-25T11:44:55.857Z,9.61
2022-12-25T11:45:57.126Z,9.61
2022-12-25T11:46:57.996Z,9.60
2022-12-25T11:47:58.863Z,9.63
2022-12-25T11:48:57.283Z,9.63
2022-12-25T11:50:00.677Z,9.61
2022-12-25T11:50:59.111Z,9.63
2022-12-25T11:52:00.381Z,9.63
2022-12-25T11:52:58.633Z,9.61
2022-12-25T11:53:58.885Z,9.61
2022-12-25T11:54:59.174Z,9.60
2022-12-25T11:55:59.429Z,9.60
2022-12-25T11:57:00.797Z,9.58
2022-12-25T11:58:02.218Z,9.60
2022-12-25T11:59:02.564Z,9.58
2022-12-25T12:00:00.924Z,9.57
2022-12-25T12:01:01.265Z,9.57
2022-12-25T12:02:01.666Z,9.57
2022-12-25T12:03:02.677Z,9.57
2022-12-25T12:04:02.174Z,9.57
2022-12-25T12:05:02.565Z,9.57
2022-12-25T12:06:03.026Z,9.57
2022-12-25T12:07:04.857Z,9.56
2022-12-25T12:08:05.257Z,9.53
2022-12-25T12:09:04.210Z,9.56
2022-12-25T12:10:03.583Z,9.56
2022-12-25T12:11:03.900Z,9.57
2022-12-25T12:12:05.206Z,9.56
2022-12-25T12:13:06.506Z,9.57
2022-12-25T12:14:06.437Z,9.57
2022-12-25T12:15:06.317Z,9.57
2022-12-25T12:16:05.633Z,9.57
2022-12-25T12:17:06.056Z,9.57
2022-12-25T12:18:07.330Z,9.60
2022-12-25T12:19:06.633Z,9.60
2022-12-25T12:20:07.860Z,9.60
2022-12-25T12:21:07.216Z,9.60
2022-12-25T12:22:08.564Z,9.60
2022-12-25T12:23:07.941Z,9.61
2022-12-25T12:24:09.430Z,9.61
2022-12-25T12:25:09.796Z,9.63
2022-12-25T12:26:10.724Z,9.64
2022-12-25T12:27:09.765Z,9.63
2022-12-25T12:28:11.150Z,9.64
2022-12-25T12:29:09.886Z,9.64
2022-12-25T12:30:09.752Z,9.64
2022-12-25T12:31:10.614Z,9.66
2022-12-25T12:32:10.165Z,9.67
2022-12-25T12:33:11.419Z,9.67
2022-12-25T12:34:11.933Z,9.67
2022-12-25T12:35:12.684Z,9.68
2022-12-25T12:36:12.681Z,9.70
2022-12-25T12:37:13.296Z,9.70
2022-12-25T12:38:13.253Z,9.73
2022-12-25T12:39:11.604Z,9.71
2022-12-25T12:40:12.927Z,9.73
2022-12-25T12:41:12.259Z,9.73
2022-12-25T12:42:14.646Z,9.73
2022-12-25T12:43:14.274Z,9.75
2022-12-25T12:44:14.064Z,9.76
2022-12-25T12:45:13.535Z,9.78
2022-12-25T12:46:13.446Z,9.78
2022-12-25T12:47:14.825Z,9.76
2022-12-25T12:48:15.172Z,9.78
2022-12-25T12:49:14.624Z,9.76
2022-12-25T12:50:16.864Z,9.78
2022-12-25T12:51:15.226Z,9.78
2022-12-25T12:52:15.778Z,9.78
2022-12-25T12:53:15.565Z,9.75
2022-12-25T12:54:15.907Z,9.75
2022-12-25T12:55:16.134Z,9.73
2022-12-25T12:56:18.198Z,9.70
2022-12-25T12:57:16.538Z,9.73
2022-12-25T12:58:16.904Z,9.73
2022-12-25T12:59:18.189Z,9.73
2022-12-25T13:00:18.412Z,9.70
2022-12-25T13:01:17.753Z,9.70
2022-12-25T13:02:19.723Z,9.71
2022-12-25T13:03:20.157Z,9.71
2022-12-25T13:04:18.563Z,9.73
2022-12-25T13:05:20.765Z,9.71
2022-12-25T13:06:19.988Z,9.73
2022-12-25T13:07:22.701Z,9.73
2022-12-25T13:08:20.464Z,9.71
2022-12-25T13:09:21.716Z,9.71
2022-12-25T13:10:20.035Z,9.71
2022-12-25T13:11:20.325Z,9.71
2022-12-25T13:12:21.801Z,9.73
2022-12-25T13:13:21.029Z,9.73
2022-12-25T13:14:21.411Z,9.73
2022-12-25T13:15:21.670Z,9.73
2022-12-25T13:16:23.443Z,9.73
2022-12-25T13:17:24.298Z,9.71
2022-12-25T13:18:23.504Z,9.71
2022-12-25T13:19:24.849Z,9.71
2022-12-25T13:20:24.554Z,9.71
2022-12-25T13:21:25.264Z,9.68
2022-12-25T13:22:23.525Z,9.70
2022-12-25T13:23:24.778Z,9.71
2022-12-25T13:24:24.174Z,9.70
2022-12-25T13:25:24.425Z,9.71
2022-12-25T13:26:24.735Z,9.68
2022-12-25T13:27:26.100Z,9.68
2022-12-25T13:28:27.128Z,9.68
2022-12-25T13:29:25.662Z,9.68
2022-12-25T13:30:25.399Z,9.67
2022-12-25T13:31:26.650Z,9.70
2022-12-25T13:32:26.043Z,9.70
2022-12-25T13:33:26.485Z,9.68
2022-12-25T13:34:28.360Z,9.70
2022-12-25T13:35:26.621Z,9.70
2022-12-25T13:36:26.869Z,9.70
2022-12-25T13:37:28.152Z,9.70
2022-12-25T13:38:29.372Z,9.70
2022-12-25T13:39:27.668Z,9.68
2022-12-25T13:40:29.970Z,9.70
2022-12-25T13:41:30.327Z,9.70
2022-12-25T13:42:28.717Z,9.70
2022-12-25T13:43:29.120Z,9.70
2022-12-25T13:44:31.425Z,9.70
2022-12-25T13:45:31.861Z,9.70
2022-12-25T13:46:31.700Z,9.70
2022-12-25T13:47:32.122Z,9.71
2022-12-25T13:48:31.895Z,9.71
2022-12-25T13:49:30.887Z,9.73
2022-12-25T13:50:30.705Z,9.73
2022-12-25T13:51:33.144Z,9.73
2022-12-25T13:52:31.507Z,9.75
2022-12-25T13:53:31.916Z,9.75
2022-12-25T13:54:32.271Z,9.78
2022-12-25T13:55:32.866Z,9.79
2022-12-25T13:56:32.731Z,9.79
2022-12-25T13:57:34.461Z,9.82
2022-12-25T13:58:33.390Z,9.82
2022-12-25T13:59:33.879Z,9.81
2022-12-25T14:00:33.724Z,9.82
2022-12-25T14:01:35.561Z,9.81
2022-12-25T14:02:34.596Z,9.81
2022-12-25T14:03:35.773Z,9.81
2022-12-25T14:04:34.797Z,9.82
2022-12-25T14:05:42.223Z,9.81
2022-12-25T14:06:37.457Z,9.79
2022-12-25T14:07:35.728Z,9.79
2022-12-25T14:08:36.639Z,9.79
2022-12-25T14:09:36.618Z,9.79
2022-12-25T14:10:36.379Z,9.81
2022-12-25T14:11:36.617Z,9.79
2022-12-25T14:12:37.001Z,9.79
2022-12-25T14:13:37.291Z,9.81
2022-12-25T14:14:37.663Z,9.81
2022-12-25T14:15:38.030Z,9.82
2022-12-25T14:16:38.401Z,9.83
2022-12-25T14:17:40.746Z,9.83
2022-12-25T14:18:38.981Z,9.82
2022-12-25T14:19:39.245Z,9.81
2022-12-25T14:20:40.629Z,9.81
2022-12-25T14:21:40.839Z,9.81
2022-12-25T14:22:40.085Z,9.81
2022-12-25T14:23:42.523Z,9.81
2022-12-25T14:24:40.853Z,9.81
2022-12-25T14:25:43.252Z,9.81
2022-12-25T14:26:41.555Z,9.81
2022-12-25T14:27:43.848Z,9.82
2022-12-25T14:28:42.218Z,9.83
2022-12-25T14:29:43.508Z,9.82
2022-12-25T14:30:43.974Z,9.85
2022-12-25T14:31:42.798Z,9.86
2022-12-25T14:32:45.195Z,9.85
2022-12-25T14:33:45.530Z,9.85
2022-12-25T14:34:45.807Z,9.82
2022-12-25T14:35:46.631Z,9.82
2022-12-25T14:36:44.513Z,9.82
2022-12-25T14:37:44.765Z,9.82
2022-12-25T14:38:45.169Z,9.83
2022-12-25T14:39:45.464Z,9.85
2022-12-25T14:40:45.690Z,9.83